sensor_id;sensor_type;location;lat;lon;timestamp;pressure;altitude;pressure_sealevel;temperature;humidity
68301;BME280;55146;47.468;18.806;2023-03-18T00:02:11;100471.50;;;4.86;45.84
68301;BME280;55146;47.468;18.806;2023-03-18T00:04:38;100483.47;;;4.85;45.90
68301;BME280;55146;47.468;18.806;2023-03-18T00:07:04;100481.34;;;4.87;45.64
68301;BME280;55146;47.468;18.806;2023-03-18T00:09:30;100474.91;;;4.82;46.44
68301;BME280;55146;47.468;18.806;2023-03-18T00:11:56;100471.13;;;4.83;46.26
68301;BME280;55146;47.468;18.806;2023-03-18T00:14:22;100460.91;;;4.78;47.14
68301;BME280;55146;47.468;18.806;2023-03-18T00:16:48;100458.47;;;4.70;46.45
68301;BME280;55146;47.468;18.806;2023-03-18T00:19:15;100465.38;;;4.73;46.41
68301;BME280;55146;47.468;18.806;2023-03-18T00:21:42;100458.19;;;4.60;46.20
68301;BME280;55146;47.468;18.806;2023-03-18T00:24:07;100456.97;;;4.56;46.45
68301;BME280;55146;47.468;18.806;2023-03-18T00:26:33;100460.00;;;4.48;46.37
68301;BME280;55146;47.468;18.806;2023-03-18T00:28:59;100458.09;;;4.48;46.44
68301;BME280;55146;47.468;18.806;2023-03-18T00:31:25;100459.09;;;4.54;46.74
68301;BME280;55146;47.468;18.806;2023-03-18T00:33:51;100456.50;;;4.59;46.55
68301;BME280;55146;47.468;18.806;2023-03-18T00:36:17;100461.81;;;4.54;46.57
68301;BME280;55146;47.468;18.806;2023-03-18T00:38:50;100465.59;;;4.53;46.74
68301;BME280;55146;47.468;18.806;2023-03-18T00:41:15;100459.31;;;4.53;46.38
68301;BME280;55146;47.468;18.806;2023-03-18T00:43:43;100455.31;;;4.55;47.18
68301;BME280;55146;47.468;18.806;2023-03-18T00:46:18;100456.16;;;4.56;46.49
68301;BME280;55146;47.468;18.806;2023-03-18T00:48:45;100455.31;;;4.55;46.54
68301;BME280;55146;47.468;18.806;2023-03-18T00:51:12;100447.72;;;4.57;46.92
68301;BME280;55146;47.468;18.806;2023-03-18T00:53:43;100451.47;;;4.63;46.18
68301;BME280;55146;47.468;18.806;2023-03-18T00:56:10;100446.66;;;4.58;46.54
68301;BME280;55146;47.468;18.806;2023-03-18T00:58:36;100453.63;;;4.54;46.74
68301;BME280;55146;47.468;18.806;2023-03-18T01:01:03;100445.25;;;4.56;46.96
68301;BME280;55146;47.468;18.806;2023-03-18T01:03:29;100439.56;;;4.57;46.87
68301;BME280;55146;47.468;18.806;2023-03-18T01:05:54;100436.81;;;4.57;46.80
68301;BME280;55146;47.468;18.806;2023-03-18T01:08:20;100443.09;;;4.58;46.81
68301;BME280;55146;47.468;18.806;2023-03-18T01:10:46;100444.28;;;4.50;46.53
68301;BME280;55146;47.468;18.806;2023-03-18T01:13:13;100430.88;;;4.48;47.26
68301;BME280;55146;47.468;18.806;2023-03-18T01:15:38;100432.12;;;4.28;48.11
68301;BME280;55146;47.468;18.806;2023-03-18T01:18:04;100432.59;;;4.25;47.81
68301;BME280;55146;47.468;18.806;2023-03-18T01:20:30;100429.03;;;4.24;48.20
68301;BME280;55146;47.468;18.806;2023-03-18T01:22:56;100421.84;;;4.30;47.83
68301;BME280;55146;47.468;18.806;2023-03-18T01:25:22;100415.78;;;4.28;46.78
68301;BME280;55146;47.468;18.806;2023-03-18T01:27:48;100407.63;;;4.28;46.74
68301;BME280;55146;47.468;18.806;2023-03-18T01:30:13;100404.91;;;4.28;46.12
68301;BME280;55146;47.468;18.806;2023-03-18T01:32:39;100401.47;;;4.32;46.50
68301;BME280;55146;47.468;18.806;2023-03-18T01:35:05;100401.59;;;4.26;46.08
68301;BME280;55146;47.468;18.806;2023-03-18T01:37:31;100399.37;;;4.16;46.23
68301;BME280;55146;47.468;18.806;2023-03-18T01:39:57;100396.94;;;4.26;46.16
68301;BME280;55146;47.468;18.806;2023-03-18T01:42:23;100399.84;;;4.31;46.07
68301;BME280;55146;47.468;18.806;2023-03-18T01:44:48;100391.75;;;4.25;46.32
68301;BME280;55146;47.468;18.806;2023-03-18T01:47:15;100384.78;;;4.29;46.35
68301;BME280;55146;47.468;18.806;2023-03-18T01:49:47;100386.44;;;4.30;46.10
68301;BME280;55146;47.468;18.806;2023-03-18T01:52:24;100384.62;;;4.24;46.15
68301;BME280;55146;47.468;18.806;2023-03-18T01:54:58;100382.75;;;4.24;45.83
68301;BME280;55146;47.468;18.806;2023-03-18T01:57:25;100389.87;;;4.25;46.01
68301;BME280;55146;47.468;18.806;2023-03-18T01:59:52;100386.75;;;4.22;45.89
68301;BME280;55146;47.468;18.806;2023-03-18T02:02:19;100387.78;;;4.21;46.18
68301;BME280;55146;47.468;18.806;2023-03-18T02:04:50;100390.91;;;4.24;45.89
68301;BME280;55146;47.468;18.806;2023-03-18T02:07:21;100384.62;;;4.24;45.88
68301;BME280;55146;47.468;18.806;2023-03-18T02:09:48;100381.69;;;4.25;45.80
68301;BME280;55146;47.468;18.806;2023-03-18T02:12:18;100390.28;;;4.22;46.04
68301;BME280;55146;47.468;18.806;2023-03-18T02:14:46;100387.22;;;4.19;45.92
68301;BME280;55146;47.468;18.806;2023-03-18T02:17:19;100392.47;;;4.14;46.17
68301;BME280;55146;47.468;18.806;2023-03-18T02:19:51;100385.69;;;4.23;46.09
68301;BME280;55146;47.468;18.806;2023-03-18T02:27:36;100383.94;;;4.28;46.14
68301;BME280;55146;47.468;18.806;2023-03-18T02:30:09;100397.84;;;4.20;46.38
68301;BME280;55146;47.468;18.806;2023-03-18T02:32:36;100395.12;;;4.20;46.59
68301;BME280;55146;47.468;18.806;2023-03-18T02:35:04;100389.53;;;4.15;46.68
68301;BME280;55146;47.468;18.806;2023-03-18T02:37:31;100400.06;;;4.12;46.73
68301;BME280;55146;47.468;18.806;2023-03-18T02:40:14;100393.91;;;4.16;46.96
68301;BME280;55146;47.468;18.806;2023-03-18T02:42:40;100392.41;;;4.20;46.81
68301;BME280;55146;47.468;18.806;2023-03-18T02:45:08;100394.06;;;4.21;46.72
68301;BME280;55146;47.468;18.806;2023-03-18T02:47:39;100395.06;;;4.27;46.88
68301;BME280;55146;47.468;18.806;2023-03-18T02:50:07;100396.56;;;4.23;46.86
68301;BME280;55146;47.468;18.806;2023-03-18T02:52:33;100400.41;;;4.15;47.13
68301;BME280;55146;47.468;18.806;2023-03-18T02:54:58;100398.69;;;4.21;47.25
68301;BME280;55146;47.468;18.806;2023-03-18T02:57:25;100396.44;;;4.18;47.45
68301;BME280;55146;47.468;18.806;2023-03-18T02:59:51;100392.41;;;4.20;47.49
68301;BME280;55146;47.468;18.806;2023-03-18T03:02:16;100393.09;;;4.16;47.65
68301;BME280;55146;47.468;18.806;2023-03-18T03:04:41;100389.59;;;4.08;48.10
68301;BME280;55146;47.468;18.806;2023-03-18T03:07:08;100387.56;;;4.04;48.33
68301;BME280;55146;47.468;18.806;2023-03-18T03:09:33;100380.97;;;3.93;47.95
68301;BME280;55146;47.468;18.806;2023-03-18T03:11:59;100387.84;;;3.96;48.05
68301;BME280;55146;47.468;18.806;2023-03-18T03:14:24;100382.34;;;4.02;48.03
68301;BME280;55146;47.468;18.806;2023-03-18T03:16:50;100395.56;;;3.99;47.93
68301;BME280;55146;47.468;18.806;2023-03-18T03:19:16;100388.25;;;3.99;47.74
68301;BME280;55146;47.468;18.806;2023-03-18T03:21:41;100395.78;;;3.97;47.86
68301;BME280;55146;47.468;18.806;2023-03-18T03:24:08;100388.47;;;3.98;47.78
68301;BME280;55146;47.468;18.806;2023-03-18T03:26:34;100396.78;;;4.03;47.72
68301;BME280;55146;47.468;18.806;2023-03-18T03:29:00;100395.56;;;3.99;47.38
68301;BME280;55146;47.468;18.806;2023-03-18T03:31:25;100403.31;;;3.95;47.49
68301;BME280;55146;47.468;18.806;2023-03-18T03:33:51;100403.00;;;3.85;47.90
68301;BME280;55146;47.468;18.806;2023-03-18T03:36:17;100407.69;;;3.78;47.61
68301;BME280;55146;47.468;18.806;2023-03-18T03:38:43;100405.88;;;3.90;47.62
68301;BME280;55146;47.468;18.806;2023-03-18T03:41:10;100407.84;;;3.83;47.73
68301;BME280;55146;47.468;18.806;2023-03-18T03:43:39;100406.69;;;3.73;48.24
68301;BME280;55146;47.468;18.806;2023-03-18T03:46:06;100411.03;;;3.80;48.82
68301;BME280;55146;47.468;18.806;2023-03-18T03:48:32;100404.78;;;3.73;48.39
68301;BME280;55146;47.468;18.806;2023-03-18T03:50:58;100404.97;;;3.78;48.62
68301;BME280;55146;47.468;18.806;2023-03-18T03:53:24;100398.94;;;3.76;48.33
68301;BME280;55146;47.468;18.806;2023-03-18T03:55:50;100412.28;;;3.78;48.40
68301;BME280;55146;47.468;18.806;2023-03-18T03:58:15;100408.50;;;3.79;47.87
68301;BME280;55146;47.468;18.806;2023-03-18T04:00:41;100400.19;;;3.74;48.12
68301;BME280;55146;47.468;18.806;2023-03-18T04:03:06;100408.72;;;3.77;48.01
68301;BME280;55146;47.468;18.806;2023-03-18T04:05:32;100405.63;;;3.74;48.12
68301;BME280;55146;47.468;18.806;2023-03-18T04:07:57;100405.47;;;3.69;48.27
68301;BME280;55146;47.468;18.806;2023-03-18T04:10:25;100404.06;;;3.59;48.33
68301;BME280;55146;47.468;18.806;2023-03-18T04:12:51;100406.56;;;3.61;48.87
68301;BME280;55146;47.468;18.806;2023-03-18T04:15:18;100405.31;;;3.63;48.58
68301;BME280;55146;47.468;18.806;2023-03-18T04:17:48;100407.78;;;3.65;48.43
68301;BME280;55146;47.468;18.806;2023-03-18T04:20:14;100403.59;;;3.69;48.41
68301;BME280;55146;47.468;18.806;2023-03-18T04:22:41;100405.91;;;3.65;48.69
68301;BME280;55146;47.468;18.806;2023-03-18T04:25:07;100412.38;;;3.64;48.97
68301;BME280;55146;47.468;18.806;2023-03-18T04:27:35;100418.66;;;3.65;48.69
68301;BME280;55146;47.468;18.806;2023-03-18T04:30:02;100421.00;;;3.61;48.86
68301;BME280;55146;47.468;18.806;2023-03-18T04:32:27;100416.28;;;3.75;49.13
68301;BME280;55146;47.468;18.806;2023-03-18T04:34:53;100419.66;;;3.71;49.05
68301;BME280;55146;47.468;18.806;2023-03-18T04:37:19;100418.22;;;3.68;49.22
68301;BME280;55146;47.468;18.806;2023-03-18T04:39:46;100416.94;;;3.71;49.64
68301;BME280;55146;47.468;18.806;2023-03-18T04:42:12;100415.41;;;3.56;49.59
68301;BME280;55146;47.468;18.806;2023-03-18T04:44:38;100424.78;;;3.60;50.06
68301;BME280;55146;47.468;18.806;2023-03-18T04:47:03;100426.44;;;3.61;50.42
68301;BME280;55146;47.468;18.806;2023-03-18T04:49:29;100428.53;;;3.59;50.53
68301;BME280;55146;47.468;18.806;2023-03-18T04:51:55;100432.75;;;3.55;51.76
68301;BME280;55146;47.468;18.806;2023-03-18T04:54:20;100439.03;;;3.56;50.68
68301;BME280;55146;47.468;18.806;2023-03-18T04:56:46;100441.31;;;3.59;50.61
68301;BME280;55146;47.468;18.806;2023-03-18T04:59:11;100438.59;;;3.59;51.20
68301;BME280;55146;47.468;18.806;2023-03-18T05:01:36;100430.88;;;3.56;52.11
68301;BME280;55146;47.468;18.806;2023-03-18T05:04:02;100431.31;;;3.53;52.41
68301;BME280;55146;47.468;18.806;2023-03-18T05:06:29;100437.03;;;3.45;52.74
68301;BME280;55146;47.468;18.806;2023-03-18T05:08:57;100438.13;;;3.37;52.73
68301;BME280;55146;47.468;18.806;2023-03-18T05:11:23;100434.56;;;3.37;53.08
68301;BME280;55146;47.468;18.806;2023-03-18T05:13:49;100429.78;;;3.32;53.67
68301;BME280;55146;47.468;18.806;2023-03-18T05:16:15;100438.59;;;3.28;54.51
68301;BME280;55146;47.468;18.806;2023-03-18T05:18:40;100438.94;;;3.06;55.66
68301;BME280;55146;47.468;18.806;2023-03-18T05:21:07;100447.25;;;3.11;55.92
68301;BME280;55146;47.468;18.806;2023-03-18T05:23:33;100442.44;;;3.13;54.11
68301;BME280;55146;47.468;18.806;2023-03-18T05:25:59;100441.78;;;3.18;52.97
68301;BME280;55146;47.468;18.806;2023-03-18T05:28:25;100435.41;;;3.37;52.61
68301;BME280;55146;47.468;18.806;2023-03-18T05:30:51;100438.50;;;3.41;52.23
68301;BME280;55146;47.468;18.806;2023-03-18T05:33:17;100431.59;;;3.45;52.14
68301;BME280;55146;47.468;18.806;2023-03-18T05:35:43;100440.75;;;3.50;52.22
68301;BME280;55146;47.468;18.806;2023-03-18T05:38:09;100442.19;;;3.53;52.19
68301;BME280;55146;47.468;18.806;2023-03-18T05:40:34;100449.03;;;3.62;52.02
68301;BME280;55146;47.468;18.806;2023-03-18T05:43:01;100454.66;;;3.67;52.16
68301;BME280;55146;47.468;18.806;2023-03-18T05:45:26;100446.69;;;3.65;52.12
68301;BME280;55146;47.468;18.806;2023-03-18T05:47:52;100445.56;;;3.80;51.65
68301;BME280;55146;47.468;18.806;2023-03-18T05:50:27;100458.69;;;3.83;51.68
68301;BME280;55146;47.468;18.806;2023-03-18T05:52:53;100460.19;;;3.79;51.69
68301;BME280;55146;47.468;18.806;2023-03-18T05:55:18;100450.37;;;3.78;51.58
68301;BME280;55146;47.468;18.806;2023-03-18T05:57:44;100469.38;;;3.84;51.68
68301;BME280;55146;47.468;18.806;2023-03-18T06:00:10;100460.72;;;3.94;51.32
68301;BME280;55146;47.468;18.806;2023-03-18T06:02:35;100467.28;;;3.86;51.71
68301;BME280;55146;47.468;18.806;2023-03-18T06:05:00;100462.50;;;4.06;51.15
68301;BME280;55146;47.468;18.806;2023-03-18T06:07:26;100462.88;;;4.10;51.05
68301;BME280;55146;47.468;18.806;2023-03-18T06:09:52;100472.56;;;4.06;51.29
68301;BME280;55146;47.468;18.806;2023-03-18T06:12:17;100472.56;;;4.06;51.29
68301;BME280;55146;47.468;18.806;2023-03-18T06:14:44;100470.03;;;4.29;50.80
68301;BME280;55146;47.468;18.806;2023-03-18T06:17:09;100467.25;;;4.36;50.57
68301;BME280;55146;47.468;18.806;2023-03-18T06:19:36;100472.16;;;4.45;50.44
68301;BME280;55146;47.468;18.806;2023-03-18T06:22:01;100476.12;;;4.50;50.43
68301;BME280;55146;47.468;18.806;2023-03-18T06:24:26;100475.97;;;4.63;50.11
68301;BME280;55146;47.468;18.806;2023-03-18T06:26:52;100473.00;;;4.64;50.27
68301;BME280;55146;47.468;18.806;2023-03-18T06:29:18;100478.72;;;4.63;49.94
68301;BME280;55146;47.468;18.806;2023-03-18T06:31:44;100482.94;;;4.77;50.05
68301;BME280;55146;47.468;18.806;2023-03-18T06:34:09;100476.41;;;4.78;50.25
68301;BME280;55146;47.468;18.806;2023-03-18T06:36:34;100481.19;;;4.82;49.66
68301;BME280;55146;47.468;18.806;2023-03-18T06:39:00;100489.22;;;4.96;49.60
68301;BME280;55146;47.468;18.806;2023-03-18T06:41:25;100482.53;;;5.10;49.73
68301;BME280;55146;47.468;18.806;2023-03-18T06:43:52;100486.28;;;5.27;49.19
68301;BME280;55146;47.468;18.806;2023-03-18T06:46:17;100490.59;;;5.35;48.79
68301;BME280;55146;47.468;18.806;2023-03-18T06:48:43;100498.16;;;5.62;48.48
68301;BME280;55146;47.468;18.806;2023-03-18T06:51:09;100489.22;;;5.74;48.03
68301;BME280;55146;47.468;18.806;2023-03-18T06:53:35;100497.72;;;5.95;47.78
68301;BME280;55146;47.468;18.806;2023-03-18T06:56:04;100491.66;;;5.93;47.85
68301;BME280;55146;47.468;18.806;2023-03-18T06:58:30;100490.25;;;6.02;46.99
68301;BME280;55146;47.468;18.806;2023-03-18T07:00:56;100496.34;;;6.28;47.15
68301;BME280;55146;47.468;18.806;2023-03-18T07:03:22;100496.81;;;6.60;46.31
68301;BME280;55146;47.468;18.806;2023-03-18T07:05:47;100496.44;;;6.68;45.57
68301;BME280;55146;47.468;18.806;2023-03-18T07:08:13;100494.50;;;6.91;45.31
68301;BME280;55146;47.468;18.806;2023-03-18T07:10:39;100497.84;;;6.94;45.05
68301;BME280;55146;47.468;18.806;2023-03-18T07:13:05;100501.53;;;7.39;45.10
68301;BME280;55146;47.468;18.806;2023-03-18T07:15:30;100499.50;;;7.35;44.11
68301;BME280;55146;47.468;18.806;2023-03-18T07:17:57;100494.50;;;7.43;44.27
68301;BME280;55146;47.468;18.806;2023-03-18T07:20:24;100502.88;;;7.82;43.79
68301;BME280;55146;47.468;18.806;2023-03-18T07:22:50;100499.38;;;8.15;43.20
68301;BME280;55146;47.468;18.806;2023-03-18T07:25:15;100502.44;;;8.18;42.89
68301;BME280;55146;47.468;18.806;2023-03-18T07:27:41;100503.19;;;8.30;42.50
68301;BME280;55146;47.468;18.806;2023-03-18T07:30:07;100501.63;;;8.34;42.67
68301;BME280;55146;47.468;18.806;2023-03-18T07:32:34;100504.34;;;8.89;42.09
68301;BME280;55146;47.468;18.806;2023-03-18T07:35:02;100508.63;;;8.80;40.97
68301;BME280;55146;47.468;18.806;2023-03-18T07:37:29;100510.41;;;9.30;41.09
68301;BME280;55146;47.468;18.806;2023-03-18T07:39:54;100508.53;;;9.36;40.47
68301;BME280;55146;47.468;18.806;2023-03-18T07:42:20;100513.00;;;9.42;39.69
68301;BME280;55146;47.468;18.806;2023-03-18T07:44:46;100513.91;;;9.25;40.04
68301;BME280;55146;47.468;18.806;2023-03-18T07:47:11;100520.22;;;9.26;39.81
68301;BME280;55146;47.468;18.806;2023-03-18T07:49:38;100531.78;;;8.89;41.38
68301;BME280;55146;47.468;18.806;2023-03-18T07:52:04;100514.78;;;9.53;40.06
68301;BME280;55146;47.468;18.806;2023-03-18T07:54:29;100514.97;;;9.68;40.54
68301;BME280;55146;47.468;18.806;2023-03-18T07:56:55;100525.94;;;9.95;38.96
68301;BME280;55146;47.468;18.806;2023-03-18T07:59:20;100516.22;;;10.41;38.95
68301;BME280;55146;47.468;18.806;2023-03-18T08:01:46;100518.31;;;10.61;38.21
68301;BME280;55146;47.468;18.806;2023-03-18T08:04:11;100511.66;;;10.57;38.43
68301;BME280;55146;47.468;18.806;2023-03-18T08:06:37;100519.69;;;10.63;37.45
68301;BME280;55146;47.468;18.806;2023-03-18T08:09:04;100514.53;;;10.35;38.53
68301;BME280;55146;47.468;18.806;2023-03-18T08:11:30;100517.34;;;10.45;38.08
68301;BME280;55146;47.468;18.806;2023-03-18T08:13:57;100516.38;;;10.61;38.22
68301;BME280;55146;47.468;18.806;2023-03-18T08:16:22;100524.72;;;10.39;38.10
68301;BME280;55146;47.468;18.806;2023-03-18T08:18:48;100520.69;;;10.47;37.99
68301;BME280;55146;47.468;18.806;2023-03-18T08:21:13;100518.44;;;10.81;37.46
68301;BME280;55146;47.468;18.806;2023-03-18T08:23:39;100522.88;;;10.87;37.41
68301;BME280;55146;47.468;18.806;2023-03-18T08:26:05;100518.34;;;11.18;37.15
68301;BME280;55146;47.468;18.806;2023-03-18T08:28:31;100518.81;;;11.62;36.99
68301;BME280;55146;47.468;18.806;2023-03-18T08:30:57;100515.59;;;11.75;36.21
68301;BME280;55146;47.468;18.806;2023-03-18T08:33:25;100519.28;;;11.39;36.34
68301;BME280;55146;47.468;18.806;2023-03-18T08:35:51;100515.59;;;11.85;36.07
68301;BME280;55146;47.468;18.806;2023-03-18T08:38:17;100515.63;;;12.05;35.95
68301;BME280;55146;47.468;18.806;2023-03-18T08:40:42;100506.56;;;12.45;36.80
68301;BME280;55146;47.468;18.806;2023-03-18T08:43:08;100514.78;;;12.81;34.38
68301;BME280;55146;47.468;18.806;2023-03-18T08:45:37;100510.41;;;12.29;34.34
68301;BME280;55146;47.468;18.806;2023-03-18T08:48:03;100515.63;;;12.10;34.74
68301;BME280;55146;47.468;18.806;2023-03-18T08:50:29;100509.28;;;12.00;35.78
68301;BME280;55146;47.468;18.806;2023-03-18T08:52:57;100509.56;;;12.29;34.67
68301;BME280;55146;47.468;18.806;2023-03-18T08:55:28;100502.03;;;11.68;34.17
68301;BME280;55146;47.468;18.806;2023-03-18T08:57:55;100509.56;;;11.88;34.67
68301;BME280;55146;47.468;18.806;2023-03-18T09:00:20;100507.09;;;12.12;34.68
68301;BME280;55146;47.468;18.806;2023-03-18T09:02:46;100515.37;;;12.57;33.88
68301;BME280;55146;47.468;18.806;2023-03-18T09:05:12;100515.66;;;12.71;34.30
68301;BME280;55146;47.468;18.806;2023-03-18T09:07:37;100514.81;;;12.76;34.08
68301;BME280;55146;47.468;18.806;2023-03-18T09:10:04;100517.59;;;12.55;34.28
68301;BME280;55146;47.468;18.806;2023-03-18T09:12:30;100510.69;;;12.43;34.18
68301;BME280;55146;47.468;18.806;2023-03-18T09:14:55;100512.34;;;12.69;34.70
68301;BME280;55146;47.468;18.806;2023-03-18T09:17:21;100510.06;;;13.02;35.46
68301;BME280;55146;47.468;18.806;2023-03-18T09:19:47;100510.31;;;13.05;33.34
68301;BME280;55146;47.468;18.806;2023-03-18T09:22:13;100506.22;;;12.92;33.76
68301;BME280;55146;47.468;18.806;2023-03-18T09:24:38;100499.34;;;12.80;34.67
68301;BME280;55146;47.468;18.806;2023-03-18T09:27:04;100510.88;;;12.97;34.14
68301;BME280;55146;47.468;18.806;2023-03-18T09:29:30;100499.66;;;12.48;35.00
68301;BME280;55146;47.468;18.806;2023-03-18T09:31:56;100501.03;;;12.71;34.67
68301;BME280;55146;47.468;18.806;2023-03-18T09:34:22;100494.09;;;12.73;34.96
68301;BME280;55146;47.468;18.806;2023-03-18T09:36:47;100497.25;;;13.36;33.38
68301;BME280;55146;47.468;18.806;2023-03-18T09:39:16;100491.50;;;13.22;34.19
68301;BME280;55146;47.468;18.806;2023-03-18T09:44:41;100497.56;;;13.29;34.06
68301;BME280;55146;47.468;18.806;2023-03-18T09:50:25;100485.16;;;13.12;34.13
68301;BME280;55146;47.468;18.806;2023-03-18T09:53:34;100488.41;;;13.39;33.62
68301;BME280;55146;47.468;18.806;2023-03-18T09:56:05;100497.75;;;13.48;33.04
68301;BME280;55146;47.468;18.806;2023-03-18T09:58:45;100486.44;;;13.40;32.31
68301;BME280;55146;47.468;18.806;2023-03-18T10:01:12;100481.47;;;13.91;32.61
68301;BME280;55146;47.468;18.806;2023-03-18T10:03:43;100464.44;;;14.12;31.81
68301;BME280;55146;47.468;18.806;2023-03-18T10:06:19;100481.31;;;14.11;32.52
68301;BME280;55146;47.468;18.806;2023-03-18T10:09:07;100471.16;;;14.01;31.63
68301;BME280;55146;47.468;18.806;2023-03-18T10:11:39;100476.94;;;14.05;31.53
68301;BME280;55146;47.468;18.806;2023-03-18T10:16:43;100466.16;;;14.03;31.58
68301;BME280;55146;47.468;18.806;2023-03-18T10:19:12;100466.06;;;14.13;31.25
68301;BME280;55146;47.468;18.806;2023-03-18T10:22:18;100458.50;;;14.29;31.58
68301;BME280;55146;47.468;18.806;2023-03-18T10:24:54;100460.19;;;14.59;32.08
68301;BME280;55146;47.468;18.806;2023-03-18T10:33:21;100451.13;;;14.14;32.15
68301;BME280;55146;47.468;18.806;2023-03-18T10:38:24;100444.59;;;14.34;33.22
68301;BME280;55146;47.468;18.806;2023-03-18T10:40:52;100453.66;;;14.45;32.36
68301;BME280;55146;47.468;18.806;2023-03-18T10:43:21;100451.34;;;14.23;32.72
68301;BME280;55146;47.468;18.806;2023-03-18T10:45:58;100451.34;;;14.23;32.33
68301;BME280;55146;47.468;18.806;2023-03-18T10:48:36;100447.28;;;14.49;32.20
68301;BME280;55146;47.468;18.806;2023-03-18T10:56:20;100434.91;;;14.37;33.60
68301;BME280;55146;47.468;18.806;2023-03-18T10:58:46;100437.66;;;14.03;33.57
68301;BME280;55146;47.468;18.806;2023-03-18T11:01:13;100435.44;;;14.44;33.29
68301;BME280;55146;47.468;18.806;2023-03-18T11:06:23;100431.97;;;14.23;33.83
68301;BME280;55146;47.468;18.806;2023-03-18T11:09:00;100417.66;;;14.45;33.91
68301;BME280;55146;47.468;18.806;2023-03-18T11:11:29;100421.69;;;14.57;33.07
68301;BME280;55146;47.468;18.806;2023-03-18T11:13:58;100420.19;;;14.70;33.21
68301;BME280;55146;47.468;18.806;2023-03-18T11:16:38;100415.00;;;14.87;32.59
68301;BME280;55146;47.468;18.806;2023-03-18T11:20:19;100413.22;;;14.96;33.39
68301;BME280;55146;47.468;18.806;2023-03-18T11:24:32;100404.59;;;15.22;32.51
68301;BME280;55146;47.468;18.806;2023-03-18T11:27:03;100406.84;;;15.20;32.77
68301;BME280;55146;47.468;18.806;2023-03-18T11:29:33;100406.69;;;15.11;31.39
68301;BME280;55146;47.468;18.806;2023-03-18T11:32:00;100402.81;;;14.36;31.85
68301;BME280;55146;47.468;18.806;2023-03-18T11:34:31;100395.50;;;14.74;32.95
68301;BME280;55146;47.468;18.806;2023-03-18T11:37:02;100383.22;;;15.04;31.99
68301;BME280;55146;47.468;18.806;2023-03-18T11:39:34;100385.56;;;15.15;32.33
68301;BME280;55146;47.468;18.806;2023-03-18T11:42:15;100388.19;;;15.25;32.14
68301;BME280;55146;47.468;18.806;2023-03-18T11:44:41;100393.19;;;15.05;32.83
68301;BME280;55146;47.468;18.806;2023-03-18T11:47:13;100397.25;;;14.88;32.25
68301;BME280;55146;47.468;18.806;2023-03-18T11:49:42;100391.03;;;15.20;32.24
68301;BME280;55146;47.468;18.806;2023-03-18T11:54:58;100386.78;;;15.28;31.80
68301;BME280;55146;47.468;18.806;2023-03-18T12:00:17;100378.25;;;15.24;31.45
68301;BME280;55146;47.468;18.806;2023-03-18T12:03:20;100382.25;;;15.13;31.80
68301;BME280;55146;47.468;18.806;2023-03-18T12:08:36;100362.00;;;15.36;31.79
68301;BME280;55146;47.468;18.806;2023-03-18T12:11:12;100362.37;;;15.06;32.09
68301;BME280;55146;47.468;18.806;2023-03-18T12:16:57;100369.41;;;14.80;32.83
68301;BME280;55146;47.468;18.806;2023-03-18T12:22:01;100353.22;;;14.68;33.44
68301;BME280;55146;47.468;18.806;2023-03-18T12:27:47;100354.38;;;14.86;33.35
68301;BME280;55146;47.468;18.806;2023-03-18T12:33:08;100342.81;;;14.26;32.60
68301;BME280;55146;47.468;18.806;2023-03-18T12:38:41;100342.75;;;14.36;32.45
68301;BME280;55146;47.468;18.806;2023-03-18T12:43:56;100337.88;;;14.52;33.24
68301;BME280;55146;47.468;18.806;2023-03-18T12:51:46;100354.38;;;14.33;33.83
68301;BME280;55146;47.468;18.806;2023-03-18T12:54:20;100351.12;;;14.26;33.83
68301;BME280;55146;47.468;18.806;2023-03-18T12:56:50;100339.81;;;14.51;34.22
68301;BME280;55146;47.468;18.806;2023-03-18T12:59:28;100344.78;;;14.54;33.83
68301;BME280;55146;47.468;18.806;2023-03-18T13:10:37;100341.25;;;14.73;32.61
68301;BME280;55146;47.468;18.806;2023-03-18T13:13:06;100341.63;;;14.85;33.62
68301;BME280;55146;47.468;18.806;2023-03-18T13:15:37;100331.97;;;14.82;33.44
68301;BME280;55146;47.468;18.806;2023-03-18T13:18:28;100328.69;;;14.80;33.26
68301;BME280;55146;47.468;18.806;2023-03-18T13:20:57;100331.78;;;14.97;32.39
68301;BME280;55146;47.468;18.806;2023-03-18T13:29:27;100321.53;;;14.98;33.30
68301;BME280;55146;47.468;18.806;2023-03-18T13:40:21;100320.00;;;14.87;33.29
68301;BME280;55146;47.468;18.806;2023-03-18T13:42:55;100324.16;;;14.66;33.17
68301;BME280;55146;47.468;18.806;2023-03-18T13:45:29;100309.75;;;14.64;33.68
68301;BME280;55146;47.468;18.806;2023-03-18T13:47:58;100305.09;;;14.83;33.39
68301;BME280;55146;47.468;18.806;2023-03-18T13:50:35;100316.88;;;14.93;34.45
68301;BME280;55146;47.468;18.806;2023-03-18T13:53:03;100313.00;;;14.71;34.96
68301;BME280;55146;47.468;18.806;2023-03-18T13:55:30;100303.41;;;14.87;34.63
68301;BME280;55146;47.468;18.806;2023-03-18T14:16:51;100290.19;;;14.79;35.50
68301;BME280;55146;47.468;18.806;2023-03-18T14:19:18;100282.84;;;14.69;35.08
68301;BME280;55146;47.468;18.806;2023-03-18T14:22:06;100269.84;;;14.88;35.48
68301;BME280;55146;47.468;18.806;2023-03-18T14:24:32;100285.94;;;14.86;33.15
68301;BME280;55146;47.468;18.806;2023-03-18T14:32:01;100270.84;;;14.31;34.02
68301;BME280;55146;47.468;18.806;2023-03-18T14:34:56;100263.66;;;14.30;33.97
68301;BME280;55146;47.468;18.806;2023-03-18T14:37:24;100262.34;;;13.99;34.68
68301;BME280;55146;47.468;18.806;2023-03-18T14:39:51;100269.81;;;13.98;34.95
68301;BME280;55146;47.468;18.806;2023-03-18T14:44:54;100269.41;;;13.86;35.71